Terminal Aerodrome Forecast
Issued by NWS

Home | Current Version | Previous Version | Text Only | Print | Product List | Glossary On
Versions: 1 2 3 4 5 6 7 8 9 10 11 12 13 14
295
FTUS44 KLZK 201120
TAFLLQ
TAF
KLLQ 201120Z 2012/2112 VRB03KT P6SM SKC
     FM201500 13005KT P6SM SCT050 SCT250
     FM210000 VRB03KT P6SM SKC=

USA.gov is the U.S. government's official web portal to all federal, state and local government web resources and services.